sensor_id;sensor_type;location;lat;lon;timestamp;temperature;humidity
19232;DHT22;9750;48.730;10.294;2022-07-29T00:01:28;21.10;91.70
19232;DHT22;9750;48.730;10.294;2022-07-29T00:03:56;21.00;91.70
19232;DHT22;9750;48.730;10.294;2022-07-29T00:06:23;21.00;91.70
19232;DHT22;9750;48.730;10.294;2022-07-29T00:08:50;21.00;91.80
19232;DHT22;9750;48.730;10.294;2022-07-29T00:11:17;21.00;92.10
19232;DHT22;9750;48.730;10.294;2022-07-29T00:13:45;20.90;92.20
19232;DHT22;9750;48.730;10.294;2022-07-29T00:16:12;20.90;92.30
19232;DHT22;9750;48.730;10.294;2022-07-29T00:18:41;20.90;92.50
19232;DHT22;9750;48.730;10.294;2022-07-29T00:21:09;20.90;92.30
19232;DHT22;9750;48.730;10.294;2022-07-29T00:23:36;20.80;92.30
19232;DHT22;9750;48.730;10.294;2022-07-29T00:26:03;20.80;92.30
19232;DHT22;9750;48.730;10.294;2022-07-29T00:28:31;20.80;92.20
19232;DHT22;9750;48.730;10.294;2022-07-29T00:30:58;20.80;92.70
19232;DHT22;9750;48.730;10.294;2022-07-29T00:33:26;20.80;92.50
19232;DHT22;9750;48.730;10.294;2022-07-29T00:35:55;20.70;92.50
19232;DHT22;9750;48.730;10.294;2022-07-29T00:38:21;20.70;92.70
19232;DHT22;9750;48.730;10.294;2022-07-29T00:40:48;20.70;92.40
19232;DHT22;9750;48.730;10.294;2022-07-29T00:43:17;20.70;92.40
19232;DHT22;9750;48.730;10.294;2022-07-29T00:45:45;20.70;92.30
19232;DHT22;9750;48.730;10.294;2022-07-29T00:48:13;20.70;92.60
19232;DHT22;9750;48.730;10.294;2022-07-29T00:50:40;20.60;92.80
19232;DHT22;9750;48.730;10.294;2022-07-29T00:53:11;20.60;92.70
19232;DHT22;9750;48.730;10.294;2022-07-29T00:55:39;20.60;92.30
19232;DHT22;9750;48.730;10.294;2022-07-29T00:58:06;20.60;92.00
19232;DHT22;9750;48.730;10.294;2022-07-29T01:00:34;20.60;92.10
19232;DHT22;9750;48.730;10.294;2022-07-29T01:03:02;20.60;92.00
19232;DHT22;9750;48.730;10.294;2022-07-29T01:05:30;20.60;92.40
19232;DHT22;9750;48.730;10.294;2022-07-29T01:07:58;20.50;92.60
19232;DHT22;9750;48.730;10.294;2022-07-29T01:10:28;20.50;92.90
19232;DHT22;9750;48.730;10.294;2022-07-29T01:12:58;20.50;92.90
19232;DHT22;9750;48.730;10.294;2022-07-29T01:15:26;20.40;93.00
19232;DHT22;9750;48.730;10.294;2022-07-29T01:18:00;20.40;93.50
19232;DHT22;9750;48.730;10.294;2022-07-29T01:23:40;20.30;94.10
19232;DHT22;9750;48.730;10.294;2022-07-29T01:26:31;20.20;94.20
19232;DHT22;9750;48.730;10.294;2022-07-29T01:29:06;20.20;94.40
19232;DHT22;9750;48.730;10.294;2022-07-29T01:34:33;20.20;94.70
19232;DHT22;9750;48.730;10.294;2022-07-29T01:37:07;20.10;95.10
19232;DHT22;9750;48.730;10.294;2022-07-29T01:39:37;20.20;95.30
19232;DHT22;9750;48.730;10.294;2022-07-29T01:42:12;20.10;95.60
19232;DHT22;9750;48.730;10.294;2022-07-29T01:44:48;20.10;95.80
19232;DHT22;9750;48.730;10.294;2022-07-29T01:47:20;20.10;96.10
19232;DHT22;9750;48.730;10.294;2022-07-29T01:49:52;20.10;96.20
19232;DHT22;9750;48.730;10.294;2022-07-29T01:52:27;20.00;96.10
19232;DHT22;9750;48.730;10.294;2022-07-29T01:55:01;20.00;96.20
19232;DHT22;9750;48.730;10.294;2022-07-29T01:57:31;20.00;96.20
19232;DHT22;9750;48.730;10.294;2022-07-29T02:00:04;20.00;96.60
19232;DHT22;9750;48.730;10.294;2022-07-29T02:02:33;20.00;96.30
19232;DHT22;9750;48.730;10.294;2022-07-29T02:05:02;20.00;96.40
19232;DHT22;9750;48.730;10.294;2022-07-29T02:07:32;20.00;96.90
19232;DHT22;9750;48.730;10.294;2022-07-29T02:10:01;20.00;97.10
19232;DHT22;9750;48.730;10.294;2022-07-29T02:12:29;20.00;97.50
19232;DHT22;9750;48.730;10.294;2022-07-29T02:15:03;19.90;96.90
19232;DHT22;9750;48.730;10.294;2022-07-29T02:17:35;19.90;97.50
19232;DHT22;9750;48.730;10.294;2022-07-29T02:20:05;19.90;97.80
19232;DHT22;9750;48.730;10.294;2022-07-29T02:22:36;19.80;98.20
19232;DHT22;9750;48.730;10.294;2022-07-29T02:25:05;19.90;98.50
19232;DHT22;9750;48.730;10.294;2022-07-29T02:27:34;19.90;98.80
19232;DHT22;9750;48.730;10.294;2022-07-29T02:30:05;19.90;98.60
19232;DHT22;9750;48.730;10.294;2022-07-29T02:32:34;19.90;98.50
19232;DHT22;9750;48.730;10.294;2022-07-29T02:35:03;19.90;99.00
19232;DHT22;9750;48.730;10.294;2022-07-29T02:37:32;19.80;99.50
19232;DHT22;9750;48.730;10.294;2022-07-29T02:40:00;19.80;99.90
19232;DHT22;9750;48.730;10.294;2022-07-29T02:42:29;19.80;99.90
19232;DHT22;9750;48.730;10.294;2022-07-29T02:44:58;19.80;99.90
19232;DHT22;9750;48.730;10.294;2022-07-29T02:47:32;19.80;99.90
19232;DHT22;9750;48.730;10.294;2022-07-29T02:50:06;19.80;99.90
19232;DHT22;9750;48.730;10.294;2022-07-29T02:52:39;19.80;99.90
19232;DHT22;9750;48.730;10.294;2022-07-29T02:55:13;19.80;99.90
19232;DHT22;9750;48.730;10.294;2022-07-29T02:57:44;19.70;99.90
19232;DHT22;9750;48.730;10.294;2022-07-29T03:00:15;19.60;99.90
19232;DHT22;9750;48.730;10.294;2022-07-29T03:05:53;19.60;99.90
19232;DHT22;9750;48.730;10.294;2022-07-29T03:08:22;19.60;99.90
19232;DHT22;9750;48.730;10.294;2022-07-29T03:10:51;19.60;99.90
19232;DHT22;9750;48.730;10.294;2022-07-29T03:13:20;19.50;99.90
19232;DHT22;9750;48.730;10.294;2022-07-29T03:15:48;19.50;99.90
19232;DHT22;9750;48.730;10.294;2022-07-29T03:18:15;19.50;99.90
19232;DHT22;9750;48.730;10.294;2022-07-29T03:20:43;19.40;99.90
19232;DHT22;9750;48.730;10.294;2022-07-29T03:23:18;19.40;99.90
19232;DHT22;9750;48.730;10.294;2022-07-29T03:25:46;19.40;99.90
19232;DHT22;9750;48.730;10.294;2022-07-29T03:28:14;19.30;99.90
19232;DHT22;9750;48.730;10.294;2022-07-29T03:30:41;19.30;99.90
19232;DHT22;9750;48.730;10.294;2022-07-29T03:36:31;19.10;99.90
19232;DHT22;9750;48.730;10.294;2022-07-29T03:39:00;19.10;99.90
19232;DHT22;9750;48.730;10.294;2022-07-29T03:41:30;19.10;99.90
19232;DHT22;9750;48.730;10.294;2022-07-29T03:43:59;19.10;99.90
19232;DHT22;9750;48.730;10.294;2022-07-29T03:46:29;19.00;99.90
19232;DHT22;9750;48.730;10.294;2022-07-29T03:49:00;19.00;99.90
19232;DHT22;9750;48.730;10.294;2022-07-29T03:51:28;19.00;99.90
19232;DHT22;9750;48.730;10.294;2022-07-29T03:53:55;18.90;99.90
19232;DHT22;9750;48.730;10.294;2022-07-29T03:56:25;18.90;99.90
19232;DHT22;9750;48.730;10.294;2022-07-29T03:58:54;18.80;99.90
19232;DHT22;9750;48.730;10.294;2022-07-29T04:01:22;18.80;99.90
19232;DHT22;9750;48.730;10.294;2022-07-29T04:03:50;18.80;99.90
19232;DHT22;9750;48.730;10.294;2022-07-29T04:06:18;18.80;99.90
19232;DHT22;9750;48.730;10.294;2022-07-29T04:08:45;18.80;99.90
19232;DHT22;9750;48.730;10.294;2022-07-29T04:11:13;18.70;99.90
19232;DHT22;9750;48.730;10.294;2022-07-29T04:13:41;18.70;99.90
19232;DHT22;9750;48.730;10.294;2022-07-29T04:16:09;18.70;99.90
19232;DHT22;9750;48.730;10.294;2022-07-29T04:18:36;18.70;99.90
19232;DHT22;9750;48.730;10.294;2022-07-29T04:21:03;18.70;99.90
19232;DHT22;9750;48.730;10.294;2022-07-29T04:23:31;18.60;99.90
19232;DHT22;9750;48.730;10.294;2022-07-29T04:25:59;18.60;99.90
19232;DHT22;9750;48.730;10.294;2022-07-29T04:28:27;18.60;99.90
19232;DHT22;9750;48.730;10.294;2022-07-29T04:30:56;18.60;99.90
19232;DHT22;9750;48.730;10.294;2022-07-29T04:33:23;18.60;99.90
19232;DHT22;9750;48.730;10.294;2022-07-29T04:35:50;18.70;99.90
19232;DHT22;9750;48.730;10.294;2022-07-29T04:38:18;18.70;99.90
19232;DHT22;9750;48.730;10.294;2022-07-29T04:40:45;18.70;99.90
19232;DHT22;9750;48.730;10.294;2022-07-29T04:43:12;18.70;99.90
19232;DHT22;9750;48.730;10.294;2022-07-29T04:45:40;18.80;99.90
19232;DHT22;9750;48.730;10.294;2022-07-29T04:48:09;18.80;99.90
19232;DHT22;9750;48.730;10.294;2022-07-29T04:50:38;18.80;99.90
19232;DHT22;9750;48.730;10.294;2022-07-29T04:53:06;18.90;99.90
19232;DHT22;9750;48.730;10.294;2022-07-29T04:55:33;18.90;99.90
19232;DHT22;9750;48.730;10.294;2022-07-29T04:58:02;19.00;99.90
19232;DHT22;9750;48.730;10.294;2022-07-29T05:00:29;19.00;99.90
19232;DHT22;9750;48.730;10.294;2022-07-29T05:03:15;19.10;99.90
19232;DHT22;9750;48.730;10.294;2022-07-29T05:05:43;19.10;99.90
19232;DHT22;9750;48.730;10.294;2022-07-29T05:08:10;19.20;99.90
19232;DHT22;9750;48.730;10.294;2022-07-29T05:10:37;19.20;99.90
19232;DHT22;9750;48.730;10.294;2022-07-29T05:13:15;19.20;99.90
19232;DHT22;9750;48.730;10.294;2022-07-29T05:15:43;19.20;99.90
19232;DHT22;9750;48.730;10.294;2022-07-29T05:18:10;19.20;99.90
19232;DHT22;9750;48.730;10.294;2022-07-29T05:20:39;19.20;99.90
19232;DHT22;9750;48.730;10.294;2022-07-29T05:26:02;19.30;99.90
19232;DHT22;9750;48.730;10.294;2022-07-29T05:28:33;19.30;99.90
19232;DHT22;9750;48.730;10.294;2022-07-29T05:31:00;19.40;99.90
19232;DHT22;9750;48.730;10.294;2022-07-29T05:33:28;19.40;99.90
19232;DHT22;9750;48.730;10.294;2022-07-29T05:35:56;19.50;99.90
19232;DHT22;9750;48.730;10.294;2022-07-29T05:38:24;19.50;99.90
19232;DHT22;9750;48.730;10.294;2022-07-29T05:40:51;19.60;99.90
19232;DHT22;9750;48.730;10.294;2022-07-29T05:43:19;19.60;99.90
19232;DHT22;9750;48.730;10.294;2022-07-29T05:45:46;19.70;99.90
19232;DHT22;9750;48.730;10.294;2022-07-29T05:48:14;19.80;99.90
19232;DHT22;9750;48.730;10.294;2022-07-29T05:50:41;19.80;99.90
19232;DHT22;9750;48.730;10.294;2022-07-29T05:53:10;19.80;99.90
19232;DHT22;9750;48.730;10.294;2022-07-29T05:55:37;19.90;99.90
19232;DHT22;9750;48.730;10.294;2022-07-29T05:58:05;20.00;99.90
19232;DHT22;9750;48.730;10.294;2022-07-29T06:00:32;20.00;99.90
19232;DHT22;9750;48.730;10.294;2022-07-29T06:03:00;20.10;99.90
19232;DHT22;9750;48.730;10.294;2022-07-29T06:05:27;20.10;99.90
19232;DHT22;9750;48.730;10.294;2022-07-29T06:07:54;20.10;99.90
19232;DHT22;9750;48.730;10.294;2022-07-29T06:10:23;20.10;99.90
19232;DHT22;9750;48.730;10.294;2022-07-29T06:12:52;20.20;99.90
19232;DHT22;9750;48.730;10.294;2022-07-29T06:15:20;20.20;99.90
19232;DHT22;9750;48.730;10.294;2022-07-29T06:17:47;20.20;99.90
19232;DHT22;9750;48.730;10.294;2022-07-29T06:20:15;20.30;99.90
19232;DHT22;9750;48.730;10.294;2022-07-29T06:22:49;20.40;99.90
19232;DHT22;9750;48.730;10.294;2022-07-29T06:25:16;20.50;99.90
19232;DHT22;9750;48.730;10.294;2022-07-29T06:27:45;20.60;99.90
19232;DHT22;9750;48.730;10.294;2022-07-29T06:30:13;20.60;99.90
19232;DHT22;9750;48.730;10.294;2022-07-29T06:32:40;20.60;99.90
19232;DHT22;9750;48.730;10.294;2022-07-29T06:35:09;20.60;99.90
19232;DHT22;9750;48.730;10.294;2022-07-29T06:37:36;20.60;99.90
19232;DHT22;9750;48.730;10.294;2022-07-29T06:40:04;20.60;99.90
19232;DHT22;9750;48.730;10.294;2022-07-29T06:42:50;20.70;99.90
19232;DHT22;9750;48.730;10.294;2022-07-29T06:45:18;20.80;99.90
19232;DHT22;9750;48.730;10.294;2022-07-29T06:47:45;20.90;99.90
19232;DHT22;9750;48.730;10.294;2022-07-29T06:50:12;21.00;99.90
19232;DHT22;9750;48.730;10.294;2022-07-29T06:52:40;21.10;99.90
19232;DHT22;9750;48.730;10.294;2022-07-29T06:55:08;21.10;99.90
19232;DHT22;9750;48.730;10.294;2022-07-29T06:57:35;21.20;99.90
19232;DHT22;9750;48.730;10.294;2022-07-29T07:00:05;21.20;99.90
19232;DHT22;9750;48.730;10.294;2022-07-29T07:02:33;21.20;99.90
19232;DHT22;9750;48.730;10.294;2022-07-29T07:05:00;21.20;99.90
19232;DHT22;9750;48.730;10.294;2022-07-29T07:07:27;21.20;99.90
19232;DHT22;9750;48.730;10.294;2022-07-29T07:09:55;21.20;99.90
19232;DHT22;9750;48.730;10.294;2022-07-29T07:12:22;21.10;99.90
19232;DHT22;9750;48.730;10.294;2022-07-29T07:14:49;21.10;99.90
19232;DHT22;9750;48.730;10.294;2022-07-29T07:17:18;21.10;99.90
19232;DHT22;9750;48.730;10.294;2022-07-29T07:19:46;21.10;99.90
19232;DHT22;9750;48.730;10.294;2022-07-29T07:22:21;21.10;99.90
19232;DHT22;9750;48.730;10.294;2022-07-29T07:24:49;21.00;99.90
19232;DHT22;9750;48.730;10.294;2022-07-29T07:27:16;21.00;99.90
19232;DHT22;9750;48.730;10.294;2022-07-29T07:29:44;21.00;99.90
19232;DHT22;9750;48.730;10.294;2022-07-29T07:32:11;21.00;99.90
19232;DHT22;9750;48.730;10.294;2022-07-29T07:34:40;21.00;99.90
19232;DHT22;9750;48.730;10.294;2022-07-29T07:37:07;21.00;99.90
19232;DHT22;9750;48.730;10.294;2022-07-29T07:39:35;21.00;99.90
19232;DHT22;9750;48.730;10.294;2022-07-29T07:42:02;21.00;99.90
19232;DHT22;9750;48.730;10.294;2022-07-29T07:44:30;20.90;99.90
19232;DHT22;9750;48.730;10.294;2022-07-29T07:46:57;20.90;99.90
19232;DHT22;9750;48.730;10.294;2022-07-29T07:49:24;21.00;99.90
19232;DHT22;9750;48.730;10.294;2022-07-29T07:51:53;21.00;99.90
19232;DHT22;9750;48.730;10.294;2022-07-29T07:54:20;21.10;99.90
19232;DHT22;9750;48.730;10.294;2022-07-29T07:56:48;21.10;99.90
19232;DHT22;9750;48.730;10.294;2022-07-29T07:59:16;21.20;99.90
19232;DHT22;9750;48.730;10.294;2022-07-29T08:01:44;21.20;99.90
19232;DHT22;9750;48.730;10.294;2022-07-29T08:04:11;21.30;99.90
19232;DHT22;9750;48.730;10.294;2022-07-29T08:06:39;21.30;99.90
19232;DHT22;9750;48.730;10.294;2022-07-29T08:09:08;21.40;99.90
19232;DHT22;9750;48.730;10.294;2022-07-29T08:11:35;21.50;99.90
19232;DHT22;9750;48.730;10.294;2022-07-29T08:14:02;21.60;99.90
19232;DHT22;9750;48.730;10.294;2022-07-29T08:16:30;21.80;99.70
19232;DHT22;9750;48.730;10.294;2022-07-29T08:18:57;21.80;97.70
19232;DHT22;9750;48.730;10.294;2022-07-29T08:21:24;21.90;98.60
19232;DHT22;9750;48.730;10.294;2022-07-29T08:23:52;22.00;99.10
19232;DHT22;9750;48.730;10.294;2022-07-29T08:26:41;22.10;98.40
19232;DHT22;9750;48.730;10.294;2022-07-29T08:29:09;22.30;98.20
19232;DHT22;9750;48.730;10.294;2022-07-29T08:31:37;22.50;97.00
19232;DHT22;9750;48.730;10.294;2022-07-29T08:34:05;22.60;96.40
19232;DHT22;9750;48.730;10.294;2022-07-29T08:36:33;22.70;97.00
19232;DHT22;9750;48.730;10.294;2022-07-29T08:39:01;22.90;97.00
19232;DHT22;9750;48.730;10.294;2022-07-29T08:41:29;23.00;96.40
19232;DHT22;9750;48.730;10.294;2022-07-29T08:43:58;23.00;95.10
19232;DHT22;9750;48.730;10.294;2022-07-29T08:46:26;22.90;94.80
19232;DHT22;9750;48.730;10.294;2022-07-29T08:48:53;22.90;95.10
19232;DHT22;9750;48.730;10.294;2022-07-29T08:51:22;22.80;94.30
19232;DHT22;9750;48.730;10.294;2022-07-29T08:53:50;22.80;95.50
19232;DHT22;9750;48.730;10.294;2022-07-29T08:56:19;22.80;95.90
19232;DHT22;9750;48.730;10.294;2022-07-29T08:58:47;22.90;96.70
19232;DHT22;9750;48.730;10.294;2022-07-29T09:01:51;22.90;96.60
19232;DHT22;9750;48.730;10.294;2022-07-29T09:04:20;23.00;95.70
19232;DHT22;9750;48.730;10.294;2022-07-29T09:06:49;23.10;95.10
19232;DHT22;9750;48.730;10.294;2022-07-29T09:09:18;23.10;93.20
19232;DHT22;9750;48.730;10.294;2022-07-29T09:11:55;23.10;94.50
19232;DHT22;9750;48.730;10.294;2022-07-29T09:14:23;23.30;94.50
19232;DHT22;9750;48.730;10.294;2022-07-29T09:16:53;23.40;94.70
19232;DHT22;9750;48.730;10.294;2022-07-29T09:19:27;23.50;95.10
19232;DHT22;9750;48.730;10.294;2022-07-29T09:21:55;23.50;94.50
19232;DHT22;9750;48.730;10.294;2022-07-29T09:24:41;23.60;92.70
19232;DHT22;9750;48.730;10.294;2022-07-29T09:27:20;23.60;92.20
19232;DHT22;9750;48.730;10.294;2022-07-29T09:29:55;23.60;91.20
19232;DHT22;9750;48.730;10.294;2022-07-29T09:32:25;23.50;90.70
19232;DHT22;9750;48.730;10.294;2022-07-29T09:35:15;23.60;91.20
19232;DHT22;9750;48.730;10.294;2022-07-29T09:37:43;23.60;90.90
19232;DHT22;9750;48.730;10.294;2022-07-29T09:40:15;23.60;91.20
19232;DHT22;9750;48.730;10.294;2022-07-29T09:42:43;23.60;91.10
19232;DHT22;9750;48.730;10.294;2022-07-29T09:45:11;23.70;91.10
19232;DHT22;9750;48.730;10.294;2022-07-29T09:47:45;23.70;91.30
19232;DHT22;9750;48.730;10.294;2022-07-29T09:50:19;23.80;91.30
19232;DHT22;9750;48.730;10.294;2022-07-29T09:52:52;23.90;91.10
19232;DHT22;9750;48.730;10.294;2022-07-29T09:55:20;23.90;91.90
19232;DHT22;9750;48.730;10.294;2022-07-29T09:58:21;24.00;91.90
19232;DHT22;9750;48.730;10.294;2022-07-29T10:00:53;24.10;91.00
19232;DHT22;9750;48.730;10.294;2022-07-29T10:03:23;24.20;90.60
19232;DHT22;9750;48.730;10.294;2022-07-29T10:06:05;24.40;91.00
19232;DHT22;9750;48.730;10.294;2022-07-29T10:08:32;24.50;91.40
19232;DHT22;9750;48.730;10.294;2022-07-29T10:11:09;24.70;91.40
19232;DHT22;9750;48.730;10.294;2022-07-29T10:13:38;24.70;89.50
19232;DHT22;9750;48.730;10.294;2022-07-29T10:16:06;24.80;90.20
19232;DHT22;9750;48.730;10.294;2022-07-29T10:18:36;25.00;90.70
19232;DHT22;9750;48.730;10.294;2022-07-29T10:21:04;25.10;90.10
19232;DHT22;9750;48.730;10.294;2022-07-29T10:23:32;25.10;87.90
19232;DHT22;9750;48.730;10.294;2022-07-29T10:26:00;25.10;86.60
19232;DHT22;9750;48.730;10.294;2022-07-29T10:28:30;25.00;89.00
19232;DHT22;9750;48.730;10.294;2022-07-29T10:31:01;25.10;89.80
19232;DHT22;9750;48.730;10.294;2022-07-29T10:33:45;25.10;89.20
19232;DHT22;9750;48.730;10.294;2022-07-29T10:36:32;25.10;88.60
19232;DHT22;9750;48.730;10.294;2022-07-29T10:39:15;25.10;88.10
19232;DHT22;9750;48.730;10.294;2022-07-29T10:42:02;25.10;85.00
19232;DHT22;9750;48.730;10.294;2022-07-29T10:44:33;25.00;87.20
19232;DHT22;9750;48.730;10.294;2022-07-29T10:47:01;25.10;89.30
19232;DHT22;9750;48.730;10.294;2022-07-29T10:49:30;25.10;86.80
19232;DHT22;9750;48.730;10.294;2022-07-29T10:52:03;25.10;86.70
19232;DHT22;9750;48.730;10.294;2022-07-29T10:54:44;25.00;86.30
19232;DHT22;9750;48.730;10.294;2022-07-29T10:57:14;25.00;85.00
19232;DHT22;9750;48.730;10.294;2022-07-29T10:59:42;25.00;85.50
19232;DHT22;9750;48.730;10.294;2022-07-29T11:02:42;25.00;85.80
19232;DHT22;9750;48.730;10.294;2022-07-29T11:05:12;25.10;86.30
19232;DHT22;9750;48.730;10.294;2022-07-29T11:08:19;25.10;87.10
19232;DHT22;9750;48.730;10.294;2022-07-29T11:10:49;25.20;85.80
19232;DHT22;9750;48.730;10.294;2022-07-29T11:13:50;25.30;85.50
19232;DHT22;9750;48.730;10.294;2022-07-29T11:16:18;25.30;86.30
19232;DHT22;9750;48.730;10.294;2022-07-29T11:19:21;25.30;86.80
19232;DHT22;9750;48.730;10.294;2022-07-29T11:21:50;25.20;87.10
19232;DHT22;9750;48.730;10.294;2022-07-29T11:24:21;25.10;88.00
19232;DHT22;9750;48.730;10.294;2022-07-29T11:27:11;25.10;88.60
19232;DHT22;9750;48.730;10.294;2022-07-29T11:29:47;25.00;89.00
19232;DHT22;9750;48.730;10.294;2022-07-29T11:32:16;24.80;89.80
19232;DHT22;9750;48.730;10.294;2022-07-29T11:34:47;24.80;90.20
19232;DHT22;9750;48.730;10.294;2022-07-29T11:37:20;24.70;90.40
19232;DHT22;9750;48.730;10.294;2022-07-29T11:40:09;24.70;91.50
19232;DHT22;9750;48.730;10.294;2022-07-29T11:45:26;24.50;91.20
19232;DHT22;9750;48.730;10.294;2022-07-29T11:47:59;24.40;91.20
19232;DHT22;9750;48.730;10.294;2022-07-29T11:50:32;24.30;91.50
19232;DHT22;9750;48.730;10.294;2022-07-29T11:53:02;24.30;91.80
19232;DHT22;9750;48.730;10.294;2022-07-29T11:55:30;24.30;90.70
19232;DHT22;9750;48.730;10.294;2022-07-29T11:58:02;24.40;90.60
19232;DHT22;9750;48.730;10.294;2022-07-29T12:00:30;24.40;89.20
19232;DHT22;9750;48.730;10.294;2022-07-29T12:03:00;24.50;89.80
19232;DHT22;9750;48.730;10.294;2022-07-29T12:05:32;24.50;89.90
19232;DHT22;9750;48.730;10.294;2022-07-29T12:08:13;24.60;88.30
19232;DHT22;9750;48.730;10.294;2022-07-29T12:10:42;24.60;89.00
19232;DHT22;9750;48.730;10.294;2022-07-29T12:13:10;24.50;87.70
19232;DHT22;9750;48.730;10.294;2022-07-29T12:15:38;24.20;86.80
19232;DHT22;9750;48.730;10.294;2022-07-29T12:18:14;24.10;87.80
19232;DHT22;9750;48.730;10.294;2022-07-29T12:20:41;24.00;88.10
19232;DHT22;9750;48.730;10.294;2022-07-29T12:23:12;23.90;88.50
19232;DHT22;9750;48.730;10.294;2022-07-29T12:25:40;23.80;89.20
19232;DHT22;9750;48.730;10.294;2022-07-29T12:28:09;23.70;90.30
19232;DHT22;9750;48.730;10.294;2022-07-29T12:30:42;23.60;90.20
19232;DHT22;9750;48.730;10.294;2022-07-29T12:33:19;23.40;90.30
19232;DHT22;9750;48.730;10.294;2022-07-29T12:35:49;23.30;90.20
19232;DHT22;9750;48.730;10.294;2022-07-29T12:38:19;23.20;90.20
19232;DHT22;9750;48.730;10.294;2022-07-29T12:40:48;23.20;90.30
19232;DHT22;9750;48.730;10.294;2022-07-29T12:43:17;23.10;90.70
19232;DHT22;9750;48.730;10.294;2022-07-29T12:45:47;23.00;90.90
19232;DHT22;9750;48.730;10.294;2022-07-29T12:48:16;22.90;91.10
19232;DHT22;9750;48.730;10.294;2022-07-29T12:50:57;22.80;90.80
19232;DHT22;9750;48.730;10.294;2022-07-29T12:53:28;22.70;90.90
19232;DHT22;9750;48.730;10.294;2022-07-29T12:55:56;22.70;90.80
19232;DHT22;9750;48.730;10.294;2022-07-29T12:58:32;22.60;91.30
19232;DHT22;9750;48.730;10.294;2022-07-29T13:01:05;22.50;90.90
19232;DHT22;9750;48.730;10.294;2022-07-29T13:03:43;22.50;90.90
19232;DHT22;9750;48.730;10.294;2022-07-29T13:06:29;22.50;91.10
19232;DHT22;9750;48.730;10.294;2022-07-29T13:09:04;22.40;91.30
19232;DHT22;9750;48.730;10.294;2022-07-29T13:11:34;22.30;91.10
19232;DHT22;9750;48.730;10.294;2022-07-29T13:14:01;22.30;91.40
19232;DHT22;9750;48.730;10.294;2022-07-29T13:16:29;22.30;91.40
19232;DHT22;9750;48.730;10.294;2022-07-29T13:19:10;22.20;90.70
19232;DHT22;9750;48.730;10.294;2022-07-29T13:21:38;22.20;90.80
19232;DHT22;9750;48.730;10.294;2022-07-29T13:24:08;22.20;90.80
19232;DHT22;9750;48.730;10.294;2022-07-29T13:26:39;22.20;90.50
19232;DHT22;9750;48.730;10.294;2022-07-29T13:29:07;22.20;91.50
19232;DHT22;9750;48.730;10.294;2022-07-29T13:31:35;22.30;90.90
19232;DHT22;9750;48.730;10.294;2022-07-29T13:34:02;22.20;92.70
19232;DHT22;9750;48.730;10.294;2022-07-29T13:36:30;22.20;93.10
19232;DHT22;9750;48.730;10.294;2022-07-29T13:38:57;22.10;93.20
19232;DHT22;9750;48.730;10.294;2022-07-29T13:41:28;22.10;93.60
19232;DHT22;9750;48.730;10.294;2022-07-29T13:43:55;22.00;93.80
19232;DHT22;9750;48.730;10.294;2022-07-29T13:46:23;21.90;93.50
19232;DHT22;9750;48.730;10.294;2022-07-29T13:48:50;21.90;92.10
19232;DHT22;9750;48.730;10.294;2022-07-29T13:51:17;21.80;92.40
19232;DHT22;9750;48.730;10.294;2022-07-29T13:53:45;21.80;92.70
19232;DHT22;9750;48.730;10.294;2022-07-29T13:56:12;21.70;92.80
19232;DHT22;9750;48.730;10.294;2022-07-29T13:58:41;21.70;93.40
19232;DHT22;9750;48.730;10.294;2022-07-29T14:01:08;21.70;93.20
19232;DHT22;9750;48.730;10.294;2022-07-29T14:03:36;21.60;93.50
19232;DHT22;9750;48.730;10.294;2022-07-29T14:06:06;21.60;93.00
19232;DHT22;9750;48.730;10.294;2022-07-29T14:08:34;21.60;93.50
19232;DHT22;9750;48.730;10.294;2022-07-29T14:11:01;21.70;94.00
19232;DHT22;9750;48.730;10.294;2022-07-29T14:13:29;21.80;94.20
19232;DHT22;9750;48.730;10.294;2022-07-29T14:15:58;21.90;93.50
19232;DHT22;9750;48.730;10.294;2022-07-29T14:18:25;21.90;92.90
19232;DHT22;9750;48.730;10.294;2022-07-29T14:20:53;21.90;93.60
19232;DHT22;9750;48.730;10.294;2022-07-29T14:23:20;21.90;93.50
19232;DHT22;9750;48.730;10.294;2022-07-29T14:25:48;21.80;93.80
19232;DHT22;9750;48.730;10.294;2022-07-29T14:28:15;21.80;93.40
19232;DHT22;9750;48.730;10.294;2022-07-29T14:30:42;21.70;92.30
19232;DHT22;9750;48.730;10.294;2022-07-29T14:36:33;21.60;93.00
19232;DHT22;9750;48.730;10.294;2022-07-29T14:39:00;21.50;92.60
19232;DHT22;9750;48.730;10.294;2022-07-29T14:41:28;21.50;92.80
19232;DHT22;9750;48.730;10.294;2022-07-29T14:43:55;21.50;95.10
19232;DHT22;9750;48.730;10.294;2022-07-29T14:46:23;21.50;95.30
19232;DHT22;9750;48.730;10.294;2022-07-29T14:48:50;21.50;94.30
19232;DHT22;9750;48.730;10.294;2022-07-29T14:51:18;21.50;93.60
19232;DHT22;9750;48.730;10.294;2022-07-29T14:53:47;21.60;93.80
19232;DHT22;9750;48.730;10.294;2022-07-29T14:56:15;21.60;94.00
19232;DHT22;9750;48.730;10.294;2022-07-29T14:58:43;21.60;93.50
19232;DHT22;9750;48.730;10.294;2022-07-29T15:01:10;21.60;93.70
19232;DHT22;9750;48.730;10.294;2022-07-29T15:03:38;21.60;94.40
19232;DHT22;9750;48.730;10.294;2022-07-29T15:06:05;21.50;94.40
19232;DHT22;9750;48.730;10.294;2022-07-29T15:08:32;21.50;94.70
19232;DHT22;9750;48.730;10.294;2022-07-29T15:11:01;21.40;95.30
19232;DHT22;9750;48.730;10.294;2022-07-29T15:13:28;21.40;96.00
19232;DHT22;9750;48.730;10.294;2022-07-29T15:15:56;21.40;96.70
19232;DHT22;9750;48.730;10.294;2022-07-29T15:18:23;21.40;97.00
19232;DHT22;9750;48.730;10.294;2022-07-29T15:20:50;21.30;97.40
19232;DHT22;9750;48.730;10.294;2022-07-29T15:23:18;21.30;97.90
19232;DHT22;9750;48.730;10.294;2022-07-29T15:25:45;21.30;97.60
19232;DHT22;9750;48.730;10.294;2022-07-29T15:28:14;21.30;97.80
19232;DHT22;9750;48.730;10.294;2022-07-29T15:30:42;21.20;98.70
19232;DHT22;9750;48.730;10.294;2022-07-29T15:33:09;21.20;99.50
19232;DHT22;9750;48.730;10.294;2022-07-29T15:35:37;21.20;99.60
19232;DHT22;9750;48.730;10.294;2022-07-29T15:38:04;21.10;99.30
19232;DHT22;9750;48.730;10.294;2022-07-29T15:40:31;21.10;99.70
19232;DHT22;9750;48.730;10.294;2022-07-29T15:43:27;21.10;99.40
19232;DHT22;9750;48.730;10.294;2022-07-29T15:45:54;21.10;99.50
19232;DHT22;9750;48.730;10.294;2022-07-29T15:48:39;21.10;99.60
19232;DHT22;9750;48.730;10.294;2022-07-29T15:51:07;21.00;99.80
19232;DHT22;9750;48.730;10.294;2022-07-29T15:53:34;21.00;99.50
19232;DHT22;9750;48.730;10.294;2022-07-29T15:56:01;21.00;99.90
19232;DHT22;9750;48.730;10.294;2022-07-29T15:58:30;21.00;99.90
19232;DHT22;9750;48.730;10.294;2022-07-29T16:00:58;21.00;99.90
19232;DHT22;9750;48.730;10.294;2022-07-29T16:03:25;21.00;99.90
19232;DHT22;9750;48.730;10.294;2022-07-29T16:05:53;21.00;99.90
19232;DHT22;9750;48.730;10.294;2022-07-29T16:08:21;21.00;99.90
19232;DHT22;9750;48.730;10.294;2022-07-29T16:10:48;21.00;99.90